Peshastin, WA (98847)

3:16 PM PDT on May 25, 2015 (GMT -0700)
Mountain Home Lodge Leavenworth, WA | | Change Station
CLOSE
Current Station
Personal Weather Station
Location: Leavenworth, WA
Elevation: 2044 ft
Nearby Weather Stations

Elev 2044 ft 47.57 °N, 120.65 °W | Updated 11 minutes ago

Partly Cloudy
Partly Cloudy
68.3 °F
Feels Like 68.3 °F
N
0.0
Wind Variable Wind from SSE

Today
High -- | Low -- °F
--% Chance of Precip.
Yesterday
High -- | Low -- °F
Precip. -- in
5:14 AM 8:44 PM
First Quarter, 52% visible
Pressure 29.81 in
Visibility 10.0 miles
Clouds Few 8500 ft
Few 11000 ft
Dew Point 41 °F
Humidity 37%
Rainfall 0.00 in
Snow Depth Not available.
UV 8 out of 12
Pollen 8.50 out of 12
Air Quality Not available.
Flu Activity Sporadic
METAR KEAT 252155Z AUTO 23008KT 10SM FEW085 FEW110 24/04 A2983 RMK AO2 LTG DSNT S AND SW SLP094 T02390039

More Conditions Fewer Conditions

Pressure 29.81 in
Visibility 10.0 miles
Clouds Few 8500 ft
Few 11000 ft
Dew Point 41 °F
Humidity 37%
Rainfall 0.00 in
Snow Depth Not available.
UV 8 out of 12
Pollen 8.50 out of 12
Air Quality Not available.
Flu Activity Sporadic
METAR KEAT 252155Z AUTO 23008KT 10SM FEW085 FEW110 24/04 A2983 RMK AO2 LTG DSNT S AND SW SLP094 T02390039

More Conditions Fewer Conditions

10-Day Weather Forecast

Almanac

Astronomy

May. 25, 2015 Rise Set
Actual Time
Civil Twilight
Nautical Twilight
Astronomical Twilight
Moon
Length of Visible Light
Length of Day
Tomorrow will be .
, % of the Moon is Illuminated

Today's Extremes

State Highs State Lows

Community

WunderPhotos

Upload Photos

1,824,149 photos uploaded!

WunderBlogs® & News

Nearby

Air Quality

  Air Quality AQ Index Pollutant
Not available.

Snow Depth

Station Depth Elevation

Earthquake Activity

City Distance Mag. Time & Date
Minimum magnitude displayed is 2.5.

Coastal Water Temperatures

Place Temperature

Stations

Nearby Weather Stations

Station Location Temp. Windchill Dew Point Humidity Wind Precip. Elev Updated Type